sensor_id;sensor_type;location;lat;lon;timestamp;P1;durP1;ratioP1;P2;durP2;ratioP2
38182;SDS011;23991;52.430;10.586;2023-04-25T00:00:25;8.18;;;3.50;;
38182;SDS011;23991;52.430;10.586;2023-04-25T00:02:51;11.27;;;4.50;;
38182;SDS011;23991;52.430;10.586;2023-04-25T00:05:17;9.63;;;3.80;;
38182;SDS011;23991;52.430;10.586;2023-04-25T00:07:42;10.93;;;4.10;;
38182;SDS011;23991;52.430;10.586;2023-04-25T00:10:09;11.85;;;3.90;;
38182;SDS011;23991;52.430;10.586;2023-04-25T00:12:36;9.00;;;4.25;;
38182;SDS011;23991;52.430;10.586;2023-04-25T00:15:02;9.02;;;4.03;;
38182;SDS011;23991;52.430;10.586;2023-04-25T00:17:28;8.70;;;3.85;;
38182;SDS011;23991;52.430;10.586;2023-04-25T00:19:54;8.85;;;4.25;;
38182;SDS011;23991;52.430;10.586;2023-04-25T00:22:20;11.13;;;3.88;;
38182;SDS011;23991;52.430;10.586;2023-04-25T00:24:46;11.63;;;3.83;;
38182;SDS011;23991;52.430;10.586;2023-04-25T00:27:11;16.48;;;4.32;;
38182;SDS011;23991;52.430;10.586;2023-04-25T00:29:37;7.95;;;3.42;;
38182;SDS011;23991;52.430;10.586;2023-04-25T00:32:03;13.73;;;4.03;;
38182;SDS011;23991;52.430;10.586;2023-04-25T00:34:28;8.57;;;3.97;;
38182;SDS011;23991;52.430;10.586;2023-04-25T00:36:54;13.85;;;4.00;;
38182;SDS011;23991;52.430;10.586;2023-04-25T00:39:19;9.57;;;3.95;;
38182;SDS011;23991;52.430;10.586;2023-04-25T00:41:45;9.80;;;3.90;;
38182;SDS011;23991;52.430;10.586;2023-04-25T00:44:11;9.93;;;4.13;;
38182;SDS011;23991;52.430;10.586;2023-04-25T00:46:37;12.25;;;3.70;;
38182;SDS011;23991;52.430;10.586;2023-04-25T00:49:04;11.25;;;4.18;;
38182;SDS011;23991;52.430;10.586;2023-04-25T00:51:30;11.32;;;4.20;;
38182;SDS011;23991;52.430;10.586;2023-04-25T00:53:57;9.70;;;4.55;;
38182;SDS011;23991;52.430;10.586;2023-04-25T00:56:24;12.23;;;4.13;;
38182;SDS011;23991;52.430;10.586;2023-04-25T00:58:50;10.95;;;4.55;;
38182;SDS011;23991;52.430;10.586;2023-04-25T01:01:20;10.95;;;5.28;;
38182;SDS011;23991;52.430;10.586;2023-04-25T01:03:46;11.75;;;4.15;;
38182;SDS011;23991;52.430;10.586;2023-04-25T01:06:12;10.68;;;4.20;;
38182;SDS011;23991;52.430;10.586;2023-04-25T01:08:38;9.70;;;4.40;;
38182;SDS011;23991;52.430;10.586;2023-04-25T01:11:04;13.52;;;5.00;;
38182;SDS011;23991;52.430;10.586;2023-04-25T01:13:30;9.07;;;4.70;;
38182;SDS011;23991;52.430;10.586;2023-04-25T01:15:57;12.38;;;4.70;;
38182;SDS011;23991;52.430;10.586;2023-04-25T01:18:24;11.55;;;4.15;;
38182;SDS011;23991;52.430;10.586;2023-04-25T01:20:53;13.73;;;4.50;;
38182;SDS011;23991;52.430;10.586;2023-04-25T01:23:20;8.60;;;4.45;;
38182;SDS011;23991;52.430;10.586;2023-04-25T01:25:46;14.75;;;5.07;;
38182;SDS011;23991;52.430;10.586;2023-04-25T01:28:13;11.38;;;5.05;;
38182;SDS011;23991;52.430;10.586;2023-04-25T01:30:39;10.52;;;5.05;;
38182;SDS011;23991;52.430;10.586;2023-04-25T01:33:05;10.57;;;4.25;;
38182;SDS011;23991;52.430;10.586;2023-04-25T01:35:31;13.85;;;5.30;;
38182;SDS011;23991;52.430;10.586;2023-04-25T01:37:57;15.02;;;5.03;;
38182;SDS011;23991;52.430;10.586;2023-04-25T01:40:23;11.95;;;4.60;;
38182;SDS011;23991;52.430;10.586;2023-04-25T01:42:49;8.80;;;3.83;;
38182;SDS011;23991;52.430;10.586;2023-04-25T01:45:15;10.75;;;4.20;;
38182;SDS011;23991;52.430;10.586;2023-04-25T01:47:41;13.07;;;4.45;;
38182;SDS011;23991;52.430;10.586;2023-04-25T01:50:08;14.25;;;4.85;;
38182;SDS011;23991;52.430;10.586;2023-04-25T01:52:35;11.55;;;4.68;;
38182;SDS011;23991;52.430;10.586;2023-04-25T01:55:01;13.18;;;4.68;;
38182;SDS011;23991;52.430;10.586;2023-04-25T01:57:27;10.35;;;4.13;;
38182;SDS011;23991;52.430;10.586;2023-04-25T01:59:55;13.00;;;4.57;;
38182;SDS011;23991;52.430;10.586;2023-04-25T02:02:27;10.73;;;4.93;;
38182;SDS011;23991;52.430;10.586;2023-04-25T02:04:53;11.00;;;4.93;;
38182;SDS011;23991;52.430;10.586;2023-04-25T02:07:21;13.93;;;4.75;;
38182;SDS011;23991;52.430;10.586;2023-04-25T02:09:47;11.18;;;4.70;;
38182;SDS011;23991;52.430;10.586;2023-04-25T02:12:12;7.25;;;4.47;;
38182;SDS011;23991;52.430;10.586;2023-04-25T02:14:38;11.13;;;4.30;;
38182;SDS011;23991;52.430;10.586;2023-04-25T02:17:04;7.78;;;4.22;;
38182;SDS011;23991;52.430;10.586;2023-04-25T02:19:30;10.68;;;4.25;;
38182;SDS011;23991;52.430;10.586;2023-04-25T02:21:56;12.40;;;4.28;;
38182;SDS011;23991;52.430;10.586;2023-04-25T02:24:22;12.75;;;5.38;;
38182;SDS011;23991;52.430;10.586;2023-04-25T02:26:47;11.25;;;4.60;;
38182;SDS011;23991;52.430;10.586;2023-04-25T02:29:14;12.05;;;5.47;;
38182;SDS011;23991;52.430;10.586;2023-04-25T02:31:40;10.73;;;5.10;;
38182;SDS011;23991;52.430;10.586;2023-04-25T02:34:06;11.13;;;5.13;;
38182;SDS011;23991;52.430;10.586;2023-04-25T02:36:32;15.18;;;5.05;;
38182;SDS011;23991;52.430;10.586;2023-04-25T02:38:59;12.55;;;4.88;;
38182;SDS011;23991;52.430;10.586;2023-04-25T02:41:25;11.60;;;4.82;;
38182;SDS011;23991;52.430;10.586;2023-04-25T02:43:51;13.82;;;5.32;;
38182;SDS011;23991;52.430;10.586;2023-04-25T02:46:17;17.50;;;4.97;;
38182;SDS011;23991;52.430;10.586;2023-04-25T02:48:42;8.57;;;5.00;;
38182;SDS011;23991;52.430;10.586;2023-04-25T02:51:08;14.82;;;6.35;;
38182;SDS011;23991;52.430;10.586;2023-04-25T02:53:34;16.05;;;5.82;;
38182;SDS011;23991;52.430;10.586;2023-04-25T02:55:59;13.13;;;5.78;;
38182;SDS011;23991;52.430;10.586;2023-04-25T02:58:25;10.48;;;5.43;;
38182;SDS011;23991;52.430;10.586;2023-04-25T03:00:50;13.57;;;5.75;;
38182;SDS011;23991;52.430;10.586;2023-04-25T03:03:16;11.75;;;5.82;;
38182;SDS011;23991;52.430;10.586;2023-04-25T03:05:43;12.60;;;6.13;;
38182;SDS011;23991;52.430;10.586;2023-04-25T03:08:09;12.65;;;5.72;;
38182;SDS011;23991;52.430;10.586;2023-04-25T03:10:34;14.07;;;5.82;;
38182;SDS011;23991;52.430;10.586;2023-04-25T03:13:00;12.48;;;5.40;;
38182;SDS011;23991;52.430;10.586;2023-04-25T03:15:25;9.63;;;6.00;;
38182;SDS011;23991;52.430;10.586;2023-04-25T03:17:51;10.77;;;5.28;;
38182;SDS011;23991;52.430;10.586;2023-04-25T03:20:17;13.82;;;5.60;;
38182;SDS011;23991;52.430;10.586;2023-04-25T03:22:42;14.30;;;6.28;;
38182;SDS011;23991;52.430;10.586;2023-04-25T03:25:09;9.35;;;5.85;;
38182;SDS011;23991;52.430;10.586;2023-04-25T03:27:34;11.15;;;6.20;;
38182;SDS011;23991;52.430;10.586;2023-04-25T03:30:00;12.07;;;5.75;;
38182;SDS011;23991;52.430;10.586;2023-04-25T03:32:26;13.70;;;6.25;;
38182;SDS011;23991;52.430;10.586;2023-04-25T03:34:51;15.23;;;6.50;;
38182;SDS011;23991;52.430;10.586;2023-04-25T03:37:16;13.25;;;5.50;;
38182;SDS011;23991;52.430;10.586;2023-04-25T03:39:42;17.10;;;6.20;;
38182;SDS011;23991;52.430;10.586;2023-04-25T03:42:07;14.48;;;4.82;;
38182;SDS011;23991;52.430;10.586;2023-04-25T03:44:33;14.57;;;5.60;;
38182;SDS011;23991;52.430;10.586;2023-04-25T03:46:58;13.25;;;4.28;;
38182;SDS011;23991;52.430;10.586;2023-04-25T03:49:24;14.07;;;4.35;;
38182;SDS011;23991;52.430;10.586;2023-04-25T03:51:50;17.98;;;4.72;;
38182;SDS011;23991;52.430;10.586;2023-04-25T03:54:16;11.70;;;4.20;;
38182;SDS011;23991;52.430;10.586;2023-04-25T03:56:41;12.82;;;3.92;;
38182;SDS011;23991;52.430;10.586;2023-04-25T03:59:07;16.25;;;4.40;;
38182;SDS011;23991;52.430;10.586;2023-04-25T04:01:33;16.77;;;3.58;;
38182;SDS011;23991;52.430;10.586;2023-04-25T04:03:58;15.57;;;3.67;;
38182;SDS011;23991;52.430;10.586;2023-04-25T04:06:24;18.83;;;3.80;;
38182;SDS011;23991;52.430;10.586;2023-04-25T04:08:50;19.60;;;4.85;;
38182;SDS011;23991;52.430;10.586;2023-04-25T04:11:15;12.35;;;3.65;;
38182;SDS011;23991;52.430;10.586;2023-04-25T04:13:41;16.02;;;4.50;;
38182;SDS011;23991;52.430;10.586;2023-04-25T04:16:06;12.45;;;3.55;;
38182;SDS011;23991;52.430;10.586;2023-04-25T04:18:32;20.70;;;4.13;;
38182;SDS011;23991;52.430;10.586;2023-04-25T04:20:58;13.65;;;3.70;;
38182;SDS011;23991;52.430;10.586;2023-04-25T04:23:24;12.85;;;3.70;;
38182;SDS011;23991;52.430;10.586;2023-04-25T04:25:52;25.73;;;4.07;;
38182;SDS011;23991;52.430;10.586;2023-04-25T04:28:20;16.45;;;4.43;;
38182;SDS011;23991;52.430;10.586;2023-04-25T04:30:46;20.35;;;4.97;;
38182;SDS011;23991;52.430;10.586;2023-04-25T04:33:12;16.30;;;3.65;;
38182;SDS011;23991;52.430;10.586;2023-04-25T04:35:40;19.73;;;4.05;;
38182;SDS011;23991;52.430;10.586;2023-04-25T04:38:06;12.77;;;3.53;;
38182;SDS011;23991;52.430;10.586;2023-04-25T04:40:32;14.00;;;3.88;;
38182;SDS011;23991;52.430;10.586;2023-04-25T04:42:57;16.70;;;3.75;;
38182;SDS011;23991;52.430;10.586;2023-04-25T04:45:23;12.80;;;3.95;;
38182;SDS011;23991;52.430;10.586;2023-04-25T04:47:49;11.18;;;3.33;;
38182;SDS011;23991;52.430;10.586;2023-04-25T04:50:15;23.75;;;4.55;;
38182;SDS011;23991;52.430;10.586;2023-04-25T04:52:41;24.90;;;4.18;;
38182;SDS011;23991;52.430;10.586;2023-04-25T04:55:07;13.68;;;4.10;;
38182;SDS011;23991;52.430;10.586;2023-04-25T04:57:33;19.10;;;3.75;;
38182;SDS011;23991;52.430;10.586;2023-04-25T04:59:59;12.50;;;4.00;;
38182;SDS011;23991;52.430;10.586;2023-04-25T05:02:26;18.75;;;4.10;;
38182;SDS011;23991;52.430;10.586;2023-04-25T05:04:51;16.48;;;3.88;;
38182;SDS011;23991;52.430;10.586;2023-04-25T05:07:17;27.08;;;4.25;;
38182;SDS011;23991;52.430;10.586;2023-04-25T05:09:44;21.85;;;4.03;;
38182;SDS011;23991;52.430;10.586;2023-04-25T05:12:09;15.25;;;3.70;;
38182;SDS011;23991;52.430;10.586;2023-04-25T05:14:35;16.58;;;3.67;;
38182;SDS011;23991;52.430;10.586;2023-04-25T05:17:00;13.93;;;3.47;;
38182;SDS011;23991;52.430;10.586;2023-04-25T05:19:28;19.25;;;4.72;;
38182;SDS011;23991;52.430;10.586;2023-04-25T05:21:54;18.20;;;3.50;;
38182;SDS011;23991;52.430;10.586;2023-04-25T05:24:19;15.57;;;3.60;;
38182;SDS011;23991;52.430;10.586;2023-04-25T05:26:45;19.63;;;5.05;;
38182;SDS011;23991;52.430;10.586;2023-04-25T05:29:11;19.30;;;4.47;;
38182;SDS011;23991;52.430;10.586;2023-04-25T05:31:36;15.48;;;3.53;;
38182;SDS011;23991;52.430;10.586;2023-04-25T05:34:02;19.17;;;4.30;;
38182;SDS011;23991;52.430;10.586;2023-04-25T05:36:27;14.48;;;3.40;;
38182;SDS011;23991;52.430;10.586;2023-04-25T05:38:53;15.38;;;3.38;;
38182;SDS011;23991;52.430;10.586;2023-04-25T05:41:19;12.07;;;3.75;;
38182;SDS011;23991;52.430;10.586;2023-04-25T05:43:45;16.17;;;3.55;;
38182;SDS011;23991;52.430;10.586;2023-04-25T05:46:12;16.42;;;3.50;;
38182;SDS011;23991;52.430;10.586;2023-04-25T05:48:37;11.48;;;3.45;;
38182;SDS011;23991;52.430;10.586;2023-04-25T05:51:04;17.08;;;4.22;;
38182;SDS011;23991;52.430;10.586;2023-04-25T05:53:30;19.08;;;3.58;;
38182;SDS011;23991;52.430;10.586;2023-04-25T05:55:55;18.30;;;4.05;;
38182;SDS011;23991;52.430;10.586;2023-04-25T05:58:21;18.90;;;4.00;;
38182;SDS011;23991;52.430;10.586;2023-04-25T06:00:46;19.00;;;4.78;;
38182;SDS011;23991;52.430;10.586;2023-04-25T06:03:12;16.77;;;3.63;;
38182;SDS011;23991;52.430;10.586;2023-04-25T06:05:41;14.95;;;3.70;;
38182;SDS011;23991;52.430;10.586;2023-04-25T06:08:07;15.15;;;3.80;;
38182;SDS011;23991;52.430;10.586;2023-04-25T06:10:32;20.20;;;3.70;;
38182;SDS011;23991;52.430;10.586;2023-04-25T06:12:58;26.20;;;4.47;;
38182;SDS011;23991;52.430;10.586;2023-04-25T06:15:23;16.45;;;3.55;;
38182;SDS011;23991;52.430;10.586;2023-04-25T06:17:49;16.73;;;3.70;;
38182;SDS011;23991;52.430;10.586;2023-04-25T06:20:14;16.42;;;4.18;;
38182;SDS011;23991;52.430;10.586;2023-04-25T06:22:40;14.40;;;4.03;;
38182;SDS011;23991;52.430;10.586;2023-04-25T06:25:06;11.65;;;3.20;;
38182;SDS011;23991;52.430;10.586;2023-04-25T06:27:32;15.80;;;3.58;;
38182;SDS011;23991;52.430;10.586;2023-04-25T06:29:58;12.80;;;3.80;;
38182;SDS011;23991;52.430;10.586;2023-04-25T06:32:24;16.88;;;4.07;;
38182;SDS011;23991;52.430;10.586;2023-04-25T06:34:50;18.65;;;3.30;;
38182;SDS011;23991;52.430;10.586;2023-04-25T06:37:15;13.95;;;3.53;;
38182;SDS011;23991;52.430;10.586;2023-04-25T06:39:41;20.20;;;4.47;;
38182;SDS011;23991;52.430;10.586;2023-04-25T06:42:06;17.25;;;3.53;;
38182;SDS011;23991;52.430;10.586;2023-04-25T06:44:32;17.85;;;3.58;;
38182;SDS011;23991;52.430;10.586;2023-04-25T06:46:57;9.55;;;2.95;;
38182;SDS011;23991;52.430;10.586;2023-04-25T06:49:23;16.40;;;4.18;;
38182;SDS011;23991;52.430;10.586;2023-04-25T06:51:48;16.60;;;3.95;;
38182;SDS011;23991;52.430;10.586;2023-04-25T06:54:14;13.48;;;3.22;;
38182;SDS011;23991;52.430;10.586;2023-04-25T06:56:39;15.48;;;3.05;;
38182;SDS011;23991;52.430;10.586;2023-04-25T06:59:05;19.35;;;3.30;;
38182;SDS011;23991;52.430;10.586;2023-04-25T07:01:31;15.13;;;3.45;;
38182;SDS011;23991;52.430;10.586;2023-04-25T07:03:56;11.50;;;2.83;;
38182;SDS011;23991;52.430;10.586;2023-04-25T07:06:22;13.65;;;3.33;;
38182;SDS011;23991;52.430;10.586;2023-04-25T07:08:47;10.90;;;2.65;;
38182;SDS011;23991;52.430;10.586;2023-04-25T07:11:13;11.70;;;2.92;;
38182;SDS011;23991;52.430;10.586;2023-04-25T07:13:38;11.80;;;3.03;;
38182;SDS011;23991;52.430;10.586;2023-04-25T07:16:04;15.63;;;3.47;;
38182;SDS011;23991;52.430;10.586;2023-04-25T07:18:30;11.80;;;2.97;;
38182;SDS011;23991;52.430;10.586;2023-04-25T07:20:55;14.32;;;3.05;;
38182;SDS011;23991;52.430;10.586;2023-04-25T07:23:21;8.13;;;2.30;;
38182;SDS011;23991;52.430;10.586;2023-04-25T07:25:46;11.80;;;2.47;;
38182;SDS011;23991;52.430;10.586;2023-04-25T07:28:12;11.90;;;3.08;;
38182;SDS011;23991;52.430;10.586;2023-04-25T07:30:37;8.18;;;2.80;;
38182;SDS011;23991;52.430;10.586;2023-04-25T07:33:03;12.95;;;3.28;;
38182;SDS011;23991;52.430;10.586;2023-04-25T07:35:29;11.15;;;2.70;;
38182;SDS011;23991;52.430;10.586;2023-04-25T07:37:54;9.45;;;2.88;;
38182;SDS011;23991;52.430;10.586;2023-04-25T07:40:20;14.55;;;2.97;;
38182;SDS011;23991;52.430;10.586;2023-04-25T07:42:46;14.05;;;2.65;;
38182;SDS011;23991;52.430;10.586;2023-04-25T07:45:11;11.73;;;2.70;;
38182;SDS011;23991;52.430;10.586;2023-04-25T07:47:37;12.10;;;2.60;;
38182;SDS011;23991;52.430;10.586;2023-04-25T07:50:03;16.58;;;3.22;;
38182;SDS011;23991;52.430;10.586;2023-04-25T07:52:29;15.45;;;3.05;;
38182;SDS011;23991;52.430;10.586;2023-04-25T07:54:54;8.27;;;2.72;;
38182;SDS011;23991;52.430;10.586;2023-04-25T07:57:20;11.00;;;2.45;;
38182;SDS011;23991;52.430;10.586;2023-04-25T07:59:45;14.43;;;3.20;;
38182;SDS011;23991;52.430;10.586;2023-04-25T08:02:11;11.27;;;2.90;;
38182;SDS011;23991;52.430;10.586;2023-04-25T08:04:37;9.68;;;2.38;;
38182;SDS011;23991;52.430;10.586;2023-04-25T08:07:02;10.30;;;2.80;;
38182;SDS011;23991;52.430;10.586;2023-04-25T08:09:28;10.65;;;2.40;;
38182;SDS011;23991;52.430;10.586;2023-04-25T08:11:54;11.52;;;3.35;;
38182;SDS011;23991;52.430;10.586;2023-04-25T08:14:19;11.00;;;3.05;;
38182;SDS011;23991;52.430;10.586;2023-04-25T08:16:45;8.90;;;3.22;;
38182;SDS011;23991;52.430;10.586;2023-04-25T08:19:11;16.33;;;3.22;;
38182;SDS011;23991;52.430;10.586;2023-04-25T08:21:36;14.00;;;3.22;;
38182;SDS011;23991;52.430;10.586;2023-04-25T08:24:02;13.30;;;3.33;;
38182;SDS011;23991;52.430;10.586;2023-04-25T08:26:28;8.95;;;3.13;;
38182;SDS011;23991;52.430;10.586;2023-04-25T08:28:54;12.63;;;2.92;;
38182;SDS011;23991;52.430;10.586;2023-04-25T08:31:19;14.43;;;2.80;;
38182;SDS011;23991;52.430;10.586;2023-04-25T08:33:45;9.82;;;3.05;;
38182;SDS011;23991;52.430;10.586;2023-04-25T08:36:11;9.05;;;2.50;;
38182;SDS011;23991;52.430;10.586;2023-04-25T08:38:36;11.32;;;4.05;;
38182;SDS011;23991;52.430;10.586;2023-04-25T08:41:02;10.77;;;3.45;;
38182;SDS011;23991;52.430;10.586;2023-04-25T08:43:28;12.05;;;2.65;;
38182;SDS011;23991;52.430;10.586;2023-04-25T08:45:56;7.43;;;3.03;;
38182;SDS011;23991;52.430;10.586;2023-04-25T08:48:24;10.32;;;3.10;;
38182;SDS011;23991;52.430;10.586;2023-04-25T08:50:54;9.52;;;2.58;;
38182;SDS011;23991;52.430;10.586;2023-04-25T08:53:30;10.70;;;2.30;;
38182;SDS011;23991;52.430;10.586;2023-04-25T08:55:58;8.57;;;2.80;;
38182;SDS011;23991;52.430;10.586;2023-04-25T08:58:24;9.45;;;2.88;;
38182;SDS011;23991;52.430;10.586;2023-04-25T09:00:51;9.15;;;2.35;;
38182;SDS011;23991;52.430;10.586;2023-04-25T09:03:17;12.00;;;2.70;;
38182;SDS011;23991;52.430;10.586;2023-04-25T09:05:43;6.90;;;2.40;;
38182;SDS011;23991;52.430;10.586;2023-04-25T09:08:09;7.95;;;2.20;;
38182;SDS011;23991;52.430;10.586;2023-04-25T09:10:35;8.82;;;2.40;;
38182;SDS011;23991;52.430;10.586;2023-04-25T09:13:10;6.85;;;2.33;;
38182;SDS011;23991;52.430;10.586;2023-04-25T09:15:47;6.53;;;2.05;;
38182;SDS011;23991;52.430;10.586;2023-04-25T09:18:12;11.32;;;2.70;;
38182;SDS011;23991;52.430;10.586;2023-04-25T09:20:42;9.32;;;2.63;;
38182;SDS011;23991;52.430;10.586;2023-04-25T09:23:09;10.00;;;2.60;;
38182;SDS011;23991;52.430;10.586;2023-04-25T09:25:37;7.63;;;2.47;;
38182;SDS011;23991;52.430;10.586;2023-04-25T09:28:08;6.50;;;2.17;;
38182;SDS011;23991;52.430;10.586;2023-04-25T09:30:38;9.27;;;2.53;;
38182;SDS011;23991;52.430;10.586;2023-04-25T09:33:04;9.70;;;2.95;;
38182;SDS011;23991;52.430;10.586;2023-04-25T09:35:39;9.77;;;2.70;;
38182;SDS011;23991;52.430;10.586;2023-04-25T09:38:08;11.48;;;2.05;;
38182;SDS011;23991;52.430;10.586;2023-04-25T09:40:38;13.10;;;3.88;;
38182;SDS011;23991;52.430;10.586;2023-04-25T09:43:22;8.55;;;2.50;;
38182;SDS011;23991;52.430;10.586;2023-04-25T09:45:49;8.23;;;2.28;;
38182;SDS011;23991;52.430;10.586;2023-04-25T09:48:20;6.10;;;2.25;;
38182;SDS011;23991;52.430;10.586;2023-04-25T09:51:05;9.80;;;2.53;;
38182;SDS011;23991;52.430;10.586;2023-04-25T09:53:35;8.15;;;1.90;;
38182;SDS011;23991;52.430;10.586;2023-04-25T09:56:20;9.55;;;2.10;;
38182;SDS011;23991;52.430;10.586;2023-04-25T09:58:47;5.57;;;1.75;;
38182;SDS011;23991;52.430;10.586;2023-04-25T10:01:15;7.28;;;2.13;;
38182;SDS011;23991;52.430;10.586;2023-04-25T10:03:41;6.13;;;2.58;;
38182;SDS011;23991;52.430;10.586;2023-04-25T10:06:14;4.75;;;1.92;;
38182;SDS011;23991;52.430;10.586;2023-04-25T10:08:44;7.60;;;2.40;;
38182;SDS011;23991;52.430;10.586;2023-04-25T10:11:10;7.32;;;2.30;;
38182;SDS011;23991;52.430;10.586;2023-04-25T10:13:39;10.95;;;2.53;;
38182;SDS011;23991;52.430;10.586;2023-04-25T10:16:05;8.25;;;2.65;;
38182;SDS011;23991;52.430;10.586;2023-04-25T10:18:31;6.10;;;2.30;;
38182;SDS011;23991;52.430;10.586;2023-04-25T10:21:01;7.38;;;2.15;;
38182;SDS011;23991;52.430;10.586;2023-04-25T10:23:30;15.07;;;2.28;;
38182;SDS011;23991;52.430;10.586;2023-04-25T10:26:14;8.80;;;2.13;;
38182;SDS011;23991;52.430;10.586;2023-04-25T10:28:59;6.30;;;2.35;;
38182;SDS011;23991;52.430;10.586;2023-04-25T10:31:26;5.80;;;1.85;;
38182;SDS011;23991;52.430;10.586;2023-04-25T10:33:53;4.53;;;1.80;;
38182;SDS011;23991;52.430;10.586;2023-04-25T10:36:20;3.75;;;1.73;;
38182;SDS011;23991;52.430;10.586;2023-04-25T10:38:47;6.50;;;1.90;;
38182;SDS011;23991;52.430;10.586;2023-04-25T10:43:46;7.07;;;1.93;;
38182;SDS011;23991;52.430;10.586;2023-04-25T10:46:26;10.25;;;2.10;;
38182;SDS011;23991;52.430;10.586;2023-04-25T10:53:13;7.45;;;1.70;;
38182;SDS011;23991;52.430;10.586;2023-04-25T10:59:19;6.90;;;1.92;;
38182;SDS011;23991;52.430;10.586;2023-04-25T11:01:49;3.40;;;1.73;;
38182;SDS011;23991;52.430;10.586;2023-04-25T11:04:28;8.55;;;1.90;;
38182;SDS011;23991;52.430;10.586;2023-04-25T11:09:41;6.50;;;1.90;;
38182;SDS011;23991;52.430;10.586;2023-04-25T11:12:07;8.38;;;2.10;;
38182;SDS011;23991;52.430;10.586;2023-04-25T11:14:34;4.38;;;1.88;;
38182;SDS011;23991;52.430;10.586;2023-04-25T11:17:00;4.93;;;2.13;;
38182;SDS011;23991;52.430;10.586;2023-04-25T11:19:27;8.93;;;1.80;;
38182;SDS011;23991;52.430;10.586;2023-04-25T11:25:28;7.57;;;2.33;;
38182;SDS011;23991;52.430;10.586;2023-04-25T11:28:04;7.13;;;2.15;;
38182;SDS011;23991;52.430;10.586;2023-04-25T11:30:31;9.30;;;2.10;;
38182;SDS011;23991;52.430;10.586;2023-04-25T11:33:13;5.63;;;1.88;;
38182;SDS011;23991;52.430;10.586;2023-04-25T11:35:40;6.63;;;2.20;;
38182;SDS011;23991;52.430;10.586;2023-04-25T11:38:10;5.35;;;2.00;;
38182;SDS011;23991;52.430;10.586;2023-04-25T11:40:35;6.13;;;1.73;;
38182;SDS011;23991;52.430;10.586;2023-04-25T11:43:01;8.77;;;2.40;;
38182;SDS011;23991;52.430;10.586;2023-04-25T11:45:30;6.93;;;2.10;;
38182;SDS011;23991;52.430;10.586;2023-04-25T11:51:46;7.15;;;1.95;;
38182;SDS011;23991;52.430;10.586;2023-04-25T11:54:13;5.30;;;1.95;;
38182;SDS011;23991;52.430;10.586;2023-04-25T11:56:43;8.70;;;1.83;;
38182;SDS011;23991;52.430;10.586;2023-04-25T11:59:10;5.97;;;1.90;;
38182;SDS011;23991;52.430;10.586;2023-04-25T12:01:36;5.22;;;1.60;;
38182;SDS011;23991;52.430;10.586;2023-04-25T12:06:39;5.75;;;1.60;;
38182;SDS011;23991;52.430;10.586;2023-04-25T12:09:10;3.72;;;1.60;;
38182;SDS011;23991;52.430;10.586;2023-04-25T12:11:56;4.80;;;1.67;;
38182;SDS011;23991;52.430;10.586;2023-04-25T12:14:24;2.83;;;1.40;;
38182;SDS011;23991;52.430;10.586;2023-04-25T12:16:55;3.55;;;1.38;;
38182;SDS011;23991;52.430;10.586;2023-04-25T12:19:22;6.20;;;1.77;;
38182;SDS011;23991;52.430;10.586;2023-04-25T12:21:49;4.07;;;1.83;;
38182;SDS011;23991;52.430;10.586;2023-04-25T12:24:21;7.40;;;2.17;;
38182;SDS011;23991;52.430;10.586;2023-04-25T12:26:53;6.28;;;2.03;;
38182;SDS011;23991;52.430;10.586;2023-04-25T12:29:28;8.27;;;1.90;;
38182;SDS011;23991;52.430;10.586;2023-04-25T12:31:56;4.35;;;1.67;;
38182;SDS011;23991;52.430;10.586;2023-04-25T12:34:22;6.40;;;2.10;;
38182;SDS011;23991;52.430;10.586;2023-04-25T12:36:48;4.70;;;1.70;;
38182;SDS011;23991;52.430;10.586;2023-04-25T12:39:18;3.33;;;1.20;;
38182;SDS011;23991;52.430;10.586;2023-04-25T12:41:48;7.00;;;1.60;;
38182;SDS011;23991;52.430;10.586;2023-04-25T12:44:14;5.60;;;1.95;;
38182;SDS011;23991;52.430;10.586;2023-04-25T12:46:40;4.68;;;1.60;;
38182;SDS011;23991;52.430;10.586;2023-04-25T12:49:06;3.65;;;1.45;;
38182;SDS011;23991;52.430;10.586;2023-04-25T12:51:33;5.53;;;1.73;;
38182;SDS011;23991;52.430;10.586;2023-04-25T12:54:02;4.28;;;1.52;;
38182;SDS011;23991;52.430;10.586;2023-04-25T12:56:30;4.47;;;1.58;;
38182;SDS011;23991;52.430;10.586;2023-04-25T12:58:56;3.13;;;1.55;;
38182;SDS011;23991;52.430;10.586;2023-04-25T13:01:22;5.63;;;1.80;;
38182;SDS011;23991;52.430;10.586;2023-04-25T13:03:48;3.92;;;1.92;;
38182;SDS011;23991;52.430;10.586;2023-04-25T13:06:14;3.10;;;1.70;;
38182;SDS011;23991;52.430;10.586;2023-04-25T13:08:41;4.25;;;1.65;;
38182;SDS011;23991;52.430;10.586;2023-04-25T13:11:07;3.33;;;1.30;;
38182;SDS011;23991;52.430;10.586;2023-04-25T13:13:33;7.13;;;2.35;;
38182;SDS011;23991;52.430;10.586;2023-04-25T13:16:00;3.33;;;1.30;;
38182;SDS011;23991;52.430;10.586;2023-04-25T13:18:29;4.68;;;1.48;;
38182;SDS011;23991;52.430;10.586;2023-04-25T13:20:55;3.15;;;1.40;;
38182;SDS011;23991;52.430;10.586;2023-04-25T13:23:22;3.80;;;1.20;;
38182;SDS011;23991;52.430;10.586;2023-04-25T13:25:50;4.25;;;1.20;;
38182;SDS011;23991;52.430;10.586;2023-04-25T13:28:16;2.42;;;1.00;;
38182;SDS011;23991;52.430;10.586;2023-04-25T13:30:42;5.65;;;1.42;;
38182;SDS011;23991;52.430;10.586;2023-04-25T13:33:08;5.28;;;1.52;;
38182;SDS011;23991;52.430;10.586;2023-04-25T13:35:34;4.53;;;1.30;;
38182;SDS011;23991;52.430;10.586;2023-04-25T13:38:00;4.75;;;1.50;;
38182;SDS011;23991;52.430;10.586;2023-04-25T13:40:26;5.35;;;1.30;;
38182;SDS011;23991;52.430;10.586;2023-04-25T13:42:52;3.70;;;1.45;;
38182;SDS011;23991;52.430;10.586;2023-04-25T13:45:18;3.33;;;1.10;;
38182;SDS011;23991;52.430;10.586;2023-04-25T13:47:43;4.47;;;1.10;;
38182;SDS011;23991;52.430;10.586;2023-04-25T13:50:16;2.75;;;1.27;;
38182;SDS011;23991;52.430;10.586;2023-04-25T13:55:43;2.90;;;1.23;;
38182;SDS011;23991;52.430;10.586;2023-04-25T13:58:09;6.97;;;1.30;;
38182;SDS011;23991;52.430;10.586;2023-04-25T14:00:36;3.80;;;1.17;;
38182;SDS011;23991;52.430;10.586;2023-04-25T14:03:08;5.95;;;1.60;;
38182;SDS011;23991;52.430;10.586;2023-04-25T14:05:34;4.47;;;0.98;;
38182;SDS011;23991;52.430;10.586;2023-04-25T14:08:06;2.53;;;1.13;;
38182;SDS011;23991;52.430;10.586;2023-04-25T14:10:43;3.47;;;1.23;;
38182;SDS011;23991;52.430;10.586;2023-04-25T14:13:10;3.58;;;1.35;;
38182;SDS011;23991;52.430;10.586;2023-04-25T14:15:36;6.72;;;1.30;;
38182;SDS011;23991;52.430;10.586;2023-04-25T14:18:24;3.70;;;1.13;;
38182;SDS011;23991;52.430;10.586;2023-04-25T14:21:23;4.88;;;1.30;;
38182;SDS011;23991;52.430;10.586;2023-04-25T14:24:03;6.68;;;1.40;;
38182;SDS011;23991;52.430;10.586;2023-04-25T14:33:27;2.92;;;1.42;;
38182;SDS011;23991;52.430;10.586;2023-04-25T14:35:53;4.03;;;1.52;;
38182;SDS011;23991;52.430;10.586;2023-04-25T14:38:19;3.63;;;1.25;;
38182;SDS011;23991;52.430;10.586;2023-04-25T14:40:48;3.20;;;1.00;;
38182;SDS011;23991;52.430;10.586;2023-04-25T14:43:14;3.90;;;1.63;;
38182;SDS011;23991;52.430;10.586;2023-04-25T14:45:39;5.40;;;1.80;;
38182;SDS011;23991;52.430;10.586;2023-04-25T14:48:05;6.07;;;2.22;;
38182;SDS011;23991;52.430;10.586;2023-04-25T14:50:41;4.43;;;2.00;;
38182;SDS011;23991;52.430;10.586;2023-04-25T14:53:07;8.13;;;2.00;;
38182;SDS011;23991;52.430;10.586;2023-04-25T14:55:40;3.85;;;1.30;;
38182;SDS011;23991;52.430;10.586;2023-04-25T14:58:08;5.53;;;1.70;;
38182;SDS011;23991;52.430;10.586;2023-04-25T15:00:34;7.45;;;1.63;;